createdAt,value
2023-02-16T00:00:38.690Z,16.80
2023-02-16T00:03:05.352Z,16.80
2023-02-16T00:05:33.039Z,16.80
2023-02-16T00:07:59.843Z,16.80
2023-02-16T00:10:27.070Z,16.80
2023-02-16T00:13:12.377Z,16.80
2023-02-16T00:15:39.775Z,16.80
2023-02-16T00:18:19.410Z,16.80
2023-02-16T00:20:46.487Z,16.80
2023-02-16T00:23:13.152Z,16.80
2023-02-16T00:25:39.931Z,16.80
2023-02-16T00:28:10.244Z,16.80
2023-02-16T00:30:36.913Z,16.80
2023-02-16T00:33:05.315Z,16.80
2023-02-16T00:35:34.998Z,16.80
2023-02-16T00:38:01.630Z,16.80
2023-02-16T00:40:28.295Z,16.80
2023-02-16T00:42:57.215Z,16.80
2023-02-16T00:45:26.252Z,16.80
2023-02-16T00:47:53.014Z,16.80
2023-02-16T00:50:20.762Z,16.80
2023-02-16T00:52:47.529Z,16.80
2023-02-16T00:55:18.197Z,16.80
2023-02-16T00:57:53.022Z,16.80
2023-02-16T01:00:21.526Z,16.80
2023-02-16T01:02:48.704Z,16.80
2023-02-16T01:05:15.680Z,16.80
2023-02-16T01:08:01.230Z,16.80
2023-02-16T01:10:46.885Z,16.80
2023-02-16T01:13:13.588Z,16.80
2023-02-16T01:15:40.659Z,16.80
2023-02-16T01:18:07.395Z,16.80
2023-02-16T01:20:36.496Z,16.80
2023-02-16T01:23:03.370Z,16.80
2023-02-16T01:25:30.070Z,16.80
2023-02-16T01:27:56.769Z,16.80
2023-02-16T01:30:23.972Z,16.80
2023-02-16T01:32:53.644Z,16.80
2023-02-16T01:35:20.963Z,16.80
2023-02-16T01:37:47.855Z,16.80
2023-02-16T01:40:19.852Z,16.80
2023-02-16T01:42:53.291Z,16.80
2023-02-16T01:45:26.681Z,16.80
2023-02-16T01:47:53.869Z,16.80
2023-02-16T01:50:24.481Z,16.80
2023-02-16T01:52:57.167Z,16.80
2023-02-16T01:55:24.811Z,16.80
2023-02-16T01:57:53.032Z,16.80
2023-02-16T02:00:38.578Z,16.80
2023-02-16T02:03:24.474Z,16.80
2023-02-16T02:05:51.179Z,16.80
2023-02-16T02:08:30.103Z,16.80
2023-02-16T02:10:56.811Z,16.80
2023-02-16T02:13:40.492Z,16.80
2023-02-16T02:16:07.271Z,16.80
2023-02-16T02:18:34.001Z,16.70
2023-02-16T02:21:37.872Z,16.80
2023-02-16T02:24:07.571Z,16.70
2023-02-16T02:26:53.144Z,16.80
2023-02-16T02:29:39.216Z,16.80
2023-02-16T02:32:06.083Z,16.80
2023-02-16T02:34:50.779Z,16.80
2023-02-16T02:37:29.645Z,16.80
2023-02-16T02:40:08.620Z,16.80
2023-02-16T02:42:41.561Z,16.80
2023-02-16T02:45:10.443Z,16.80
2023-02-16T02:47:40.921Z,16.70
2023-02-16T02:51:03.568Z,16.70
2023-02-16T02:53:30.456Z,16.80
2023-02-16T02:56:16.474Z,16.70
2023-02-16T02:59:01.873Z,16.80
2023-02-16T03:01:28.623Z,16.80
2023-02-16T03:03:55.698Z,16.80
2023-02-16T03:06:32.801Z,16.80
2023-02-16T03:09:04.052Z,16.80
2023-02-16T03:11:49.486Z,16.80
2023-02-16T03:14:26.388Z,16.80
2023-02-16T03:17:18.460Z,16.80
2023-02-16T03:20:04.881Z,16.80
2023-02-16T03:22:50.415Z,16.70
2023-02-16T03:25:35.565Z,16.80
2023-02-16T03:28:21.690Z,16.70
2023-02-16T03:30:48.475Z,16.80
2023-02-16T03:33:15.198Z,16.70
2023-02-16T03:35:42.176Z,16.80
2023-02-16T03:38:08.952Z,16.80
2023-02-16T03:40:35.678Z,16.70
2023-02-16T03:43:03.401Z,16.70
2023-02-16T03:45:30.481Z,16.70
2023-02-16T03:47:57.240Z,16.80
2023-02-16T03:50:23.947Z,16.80
2023-02-16T03:53:06.889Z,16.70
2023-02-16T03:55:33.811Z,16.70
2023-02-16T03:58:01.028Z,16.70
2023-02-16T04:00:27.732Z,16.80
2023-02-16T04:02:54.529Z,16.80
2023-02-16T04:05:21.595Z,16.80
2023-02-16T04:07:48.322Z,16.70
2023-02-16T04:10:15.242Z,16.70
2023-02-16T04:12:41.952Z,16.70
2023-02-16T04:15:13.076Z,16.80
2023-02-16T04:17:39.769Z,16.80
2023-02-16T04:20:06.691Z,16.70
2023-02-16T04:22:33.379Z,16.80
2023-02-16T04:25:00.045Z,16.80
2023-02-16T04:27:26.774Z,16.70
2023-02-16T04:29:53.571Z,16.80
2023-02-16T04:32:20.266Z,16.70
2023-02-16T04:34:46.913Z,16.80
2023-02-16T04:37:13.724Z,16.70
2023-02-16T04:39:40.385Z,16.70
2023-02-16T04:42:07.063Z,16.70
2023-02-16T04:44:33.782Z,16.70
2023-02-16T04:47:00.538Z,16.80
2023-02-16T04:49:27.226Z,16.70
2023-02-16T04:51:53.965Z,16.70
2023-02-16T04:54:20.867Z,16.80
2023-02-16T04:56:47.593Z,16.70
2023-02-16T04:59:14.353Z,16.70
2023-02-16T05:01:41.516Z,16.70
2023-02-16T05:04:09.516Z,16.70
2023-02-16T05:06:36.751Z,16.70
2023-02-16T05:09:04.062Z,16.70
2023-02-16T05:11:49.474Z,16.70
2023-02-16T05:14:39.225Z,16.70
2023-02-16T05:17:05.962Z,16.70
2023-02-16T05:19:32.698Z,16.70
2023-02-16T05:21:59.394Z,16.70
2023-02-16T05:24:28.211Z,16.80
2023-02-16T05:26:55.338Z,16.70
2023-02-16T05:29:22.062Z,16.80
2023-02-16T05:31:48.843Z,16.80
2023-02-16T05:34:15.588Z,16.80
2023-02-16T05:36:42.274Z,16.70
2023-02-16T05:39:08.998Z,16.70
2023-02-16T05:41:35.684Z,16.70
2023-02-16T05:44:03.016Z,16.80
2023-02-16T05:46:30.476Z,16.80
2023-02-16T05:48:57.227Z,16.70
2023-02-16T05:51:23.894Z,16.80
2023-02-16T05:53:50.690Z,16.80
2023-02-16T05:56:17.677Z,16.80
2023-02-16T05:58:44.437Z,16.70
2023-02-16T06:01:11.097Z,16.80
2023-02-16T06:03:37.927Z,16.80
2023-02-16T06:06:04.917Z,16.80
2023-02-16T06:08:31.730Z,16.80
2023-02-16T06:10:58.537Z,16.80
2023-02-16T06:13:25.389Z,16.80
2023-02-16T06:15:56.402Z,16.80
2023-02-16T06:18:23.709Z,16.80
2023-02-16T06:20:50.439Z,16.80
2023-02-16T06:23:17.251Z,16.80
2023-02-16T06:25:48.981Z,16.80
2023-02-16T06:28:15.661Z,16.80
2023-02-16T06:30:42.778Z,16.80
2023-02-16T06:33:15.749Z,16.80
2023-02-16T06:35:42.510Z,16.80
2023-02-16T06:38:09.200Z,16.80
2023-02-16T06:40:35.908Z,16.80
2023-02-16T06:43:03.971Z,16.80
2023-02-16T06:45:33.724Z,16.70
2023-02-16T06:48:00.411Z,16.80
2023-02-16T06:50:27.208Z,16.80
2023-02-16T06:52:53.901Z,16.80
2023-02-16T06:55:20.806Z,16.80
2023-02-16T06:57:47.519Z,16.80
2023-02-16T07:00:14.604Z,16.80
2023-02-16T07:02:43.328Z,16.80
2023-02-16T07:05:10.534Z,16.80
2023-02-16T07:07:37.248Z,16.80
2023-02-16T07:10:04.068Z,16.80
2023-02-16T07:12:30.762Z,16.80
2023-02-16T07:14:57.469Z,16.80
2023-02-16T07:17:24.168Z,16.70
2023-02-16T07:19:50.897Z,16.80
2023-02-16T07:22:17.877Z,16.80
2023-02-16T07:24:44.573Z,16.80
2023-02-16T07:27:11.326Z,16.80
2023-02-16T07:29:38.073Z,16.70
2023-02-16T07:32:05.080Z,16.80
2023-02-16T07:34:31.915Z,16.80
2023-02-16T07:36:58.606Z,16.80
2023-02-16T07:39:25.302Z,16.80
2023-02-16T07:41:52.014Z,16.80
2023-02-16T07:44:21.904Z,16.80
2023-02-16T07:46:48.625Z,16.80
2023-02-16T07:49:15.292Z,16.70
2023-02-16T07:51:42.066Z,16.80
2023-02-16T07:54:08.802Z,16.70
2023-02-16T07:56:35.623Z,16.80
2023-02-16T07:59:02.358Z,16.80
2023-02-16T08:01:30.042Z,16.70
2023-02-16T08:04:02.906Z,16.80
2023-02-16T08:06:29.627Z,16.70
2023-02-16T08:08:56.887Z,16.80
2023-02-16T08:11:23.985Z,16.70
2023-02-16T08:13:53.674Z,16.70
2023-02-16T08:16:24.401Z,16.70
2023-02-16T08:18:51.161Z,16.70
2023-02-16T08:21:18.884Z,16.70
2023-02-16T08:23:47.764Z,16.80
2023-02-16T08:26:15.250Z,16.70
2023-02-16T08:28:46.057Z,16.70
2023-02-16T08:31:13.621Z,16.70
2023-02-16T08:33:40.394Z,16.80
2023-02-16T08:36:10.740Z,16.80
2023-02-16T08:38:37.396Z,16.80
2023-02-16T08:41:04.184Z,16.80
2023-02-16T08:43:30.872Z,16.80
2023-02-16T08:45:57.784Z,16.80
2023-02-16T08:48:24.513Z,16.80
2023-02-16T08:50:54.136Z,16.80
2023-02-16T08:53:24.596Z,16.80
2023-02-16T08:55:52.060Z,16.80
2023-02-16T08:58:18.896Z,16.80
2023-02-16T09:00:45.697Z,16.80
2023-02-16T09:03:12.359Z,16.80
2023-02-16T09:05:39.260Z,16.80
2023-02-16T09:08:05.954Z,16.90
2023-02-16T09:10:32.960Z,16.80
2023-02-16T09:12:59.948Z,16.80
2023-02-16T09:15:26.626Z,16.80
2023-02-16T09:17:53.317Z,16.90
2023-02-16T09:20:20.556Z,16.80
2023-02-16T09:23:10.356Z,16.80
2023-02-16T09:25:37.493Z,16.80
2023-02-16T09:28:04.523Z,16.90
2023-02-16T09:30:31.697Z,16.90
2023-02-16T09:32:58.968Z,16.90
2023-02-16T09:35:25.875Z,16.80
2023-02-16T09:37:52.546Z,16.90
2023-02-16T09:40:19.363Z,16.90
2023-02-16T09:43:04.363Z,16.80
2023-02-16T09:45:58.922Z,16.80
2023-02-16T09:48:25.707Z,16.80
2023-02-16T09:50:54.511Z,16.80
2023-02-16T09:53:28.860Z,16.80
2023-02-16T09:56:08.236Z,16.80
2023-02-16T09:58:42.564Z,16.80
2023-02-16T10:01:18.746Z,16.80
2023-02-16T10:04:05.668Z,16.80
2023-02-16T10:06:41.447Z,16.80
2023-02-16T10:09:09.831Z,16.80
2023-02-16T10:11:38.361Z,16.80
2023-02-16T10:14:16.987Z,16.90
2023-02-16T10:16:51.261Z,16.90
2023-02-16T10:19:28.684Z,16.80
2023-02-16T10:21:56.756Z,16.80
2023-02-16T10:24:23.437Z,16.80
2023-02-16T10:26:51.175Z,16.80
2023-02-16T10:29:23.338Z,16.80
2023-02-16T10:32:19.408Z,16.80
2023-02-16T10:35:13.385Z,16.90
2023-02-16T10:37:40.110Z,16.80
2023-02-16T10:40:09.878Z,16.90
2023-02-16T10:42:44.884Z,16.80
2023-02-16T10:45:15.515Z,16.80
2023-02-16T10:47:43.602Z,16.90
2023-02-16T10:50:37.847Z,16.80
2023-02-16T10:53:07.057Z,16.80
2023-02-16T10:55:33.730Z,16.80
2023-02-16T10:58:00.729Z,16.80
2023-02-16T11:00:48.378Z,16.90
2023-02-16T11:03:15.599Z,16.90
2023-02-16T11:05:42.398Z,16.80
2023-02-16T11:08:11.414Z,16.90
2023-02-16T11:10:43.553Z,16.90
2023-02-16T11:13:28.602Z,16.80
2023-02-16T11:15:56.842Z,16.90
2023-02-16T11:18:31.754Z,16.80
2023-02-16T11:20:58.930Z,16.80
2023-02-16T11:23:29.636Z,16.90
2023-02-16T11:25:57.063Z,16.80
2023-02-16T11:28:27.859Z,16.90
2023-02-16T11:30:59.502Z,16.90
2023-02-16T11:33:29.265Z,16.90
2023-02-16T11:35:56.064Z,16.90
2023-02-16T11:38:27.279Z,16.90
2023-02-16T11:40:54.377Z,16.80
2023-02-16T11:43:21.216Z,16.80
2023-02-16T11:45:57.945Z,16.90
2023-02-16T11:48:26.326Z,16.90
2023-02-16T11:51:00.410Z,16.80
2023-02-16T11:53:28.086Z,16.80
2023-02-16T11:56:10.754Z,16.90
2023-02-16T11:58:37.931Z,16.90
2023-02-16T12:01:23.500Z,16.80
2023-02-16T12:03:50.474Z,16.80
2023-02-16T12:06:29.354Z,16.80
2023-02-16T12:09:02.076Z,16.90
2023-02-16T12:11:34.939Z,16.80
2023-02-16T12:14:04.319Z,16.90
2023-02-16T12:16:43.309Z,16.90
2023-02-16T12:19:24.636Z,16.80
2023-02-16T12:21:52.218Z,16.90
2023-02-16T12:24:32.118Z,16.90
2023-02-16T12:27:00.727Z,16.90
2023-02-16T12:29:38.130Z,16.80
2023-02-16T12:32:11.074Z,16.90
2023-02-16T12:34:37.749Z,16.90
2023-02-16T12:37:05.735Z,16.90
2023-02-16T12:39:39.160Z,16.80
2023-02-16T12:42:29.098Z,16.90
2023-02-16T12:44:57.139Z,16.90
2023-02-16T12:47:26.022Z,16.90
2023-02-16T12:49:56.598Z,16.80
2023-02-16T12:52:31.974Z,16.90
2023-02-16T12:55:07.631Z,16.90
2023-02-16T12:57:34.483Z,16.90
2023-02-16T13:00:04.252Z,16.90
2023-02-16T13:02:44.674Z,16.90
2023-02-16T13:05:18.130Z,16.80
2023-02-16T13:07:47.078Z,16.90
2023-02-16T13:10:24.717Z,16.80
2023-02-16T13:13:01.231Z,16.90
2023-02-16T13:15:39.618Z,16.90
2023-02-16T13:18:09.348Z,16.80
2023-02-16T13:20:36.290Z,16.80
2023-02-16T13:23:13.182Z,16.80
2023-02-16T13:25:43.182Z,16.90
2023-02-16T13:28:09.956Z,16.90
2023-02-16T13:30:40.415Z,16.90
2023-02-16T13:33:26.072Z,16.90
2023-02-16T13:35:57.415Z,16.90
2023-02-16T13:38:40.919Z,16.90
2023-02-16T13:41:11.781Z,16.90
2023-02-16T13:43:41.703Z,16.90
2023-02-16T13:46:13.035Z,16.90
2023-02-16T13:48:46.402Z,16.90
2023-02-16T13:51:14.866Z,16.90
2023-02-16T13:53:42.562Z,16.90
2023-02-16T13:56:22.371Z,16.90
2023-02-16T13:58:52.358Z,16.90
2023-02-16T14:01:28.332Z,16.90
2023-02-16T14:03:56.658Z,16.90
2023-02-16T14:06:27.055Z,16.90
2023-02-16T14:09:12.152Z,16.90
2023-02-16T14:11:52.918Z,16.90
2023-02-16T14:14:29.342Z,16.90
2023-02-16T14:16:56.845Z,16.90
2023-02-16T14:19:24.916Z,16.90
2023-02-16T14:21:51.854Z,16.90
2023-02-16T14:24:34.475Z,16.90
2023-02-16T14:27:11.239Z,16.90
2023-02-16T14:29:38.277Z,16.80
2023-02-16T14:32:06.748Z,16.90
2023-02-16T14:34:38.160Z,16.90
2023-02-16T14:37:17.171Z,16.90
2023-02-16T14:40:06.627Z,16.90
2023-02-16T14:42:31.820Z,16.90
2023-02-16T14:45:19.687Z,16.90
2023-02-16T14:47:55.299Z,16.90
2023-02-16T14:50:34.199Z,16.90
2023-02-16T14:53:27.183Z,16.90
2023-02-16T14:56:06.778Z,17.00
2023-02-16T14:58:55.063Z,16.90
2023-02-16T15:01:22.644Z,16.90
2023-02-16T15:03:50.838Z,16.90
2023-02-16T15:06:38.672Z,16.90
2023-02-16T15:09:25.817Z,16.90
2023-02-16T15:12:14.687Z,16.90
2023-02-16T15:15:00.444Z,16.90
2023-02-16T15:17:34.477Z,16.90
2023-02-16T15:20:07.394Z,16.90
2023-02-16T15:22:34.122Z,16.90
2023-02-16T15:25:01.757Z,16.90
2023-02-16T15:27:29.102Z,16.90
2023-02-16T15:30:14.885Z,16.90
2023-02-16T15:32:41.760Z,17.00
2023-02-16T15:35:21.880Z,17.00
2023-02-16T15:37:48.606Z,17.00
2023-02-16T15:40:25.932Z,16.90
2023-02-16T15:42:53.181Z,16.90
2023-02-16T15:45:26.807Z,17.00
2023-02-16T15:47:53.725Z,17.00
2023-02-16T15:50:24.255Z,16.90
2023-02-16T15:52:50.927Z,17.00
2023-02-16T15:55:18.190Z,17.00
2023-02-16T15:57:45.517Z,17.00
2023-02-16T16:00:18.398Z,17.00
2023-02-16T16:02:49.010Z,17.00
2023-02-16T16:05:28.772Z,17.00
2023-02-16T16:07:55.783Z,17.00
2023-02-16T16:10:30.352Z,17.00
2023-02-16T16:12:58.384Z,17.00
2023-02-16T16:15:26.388Z,17.00
2023-02-16T16:17:53.628Z,17.00
2023-02-16T16:20:27.348Z,17.00
2023-02-16T16:22:58.061Z,17.00
2023-02-16T16:25:33.825Z,17.00
2023-02-16T16:28:00.858Z,17.00
2023-02-16T16:30:28.862Z,17.00
2023-02-16T16:32:59.525Z,17.10
2023-02-16T16:35:38.617Z,17.00
2023-02-16T16:38:05.909Z,17.10
2023-02-16T16:40:36.464Z,17.00
2023-02-16T16:43:07.621Z,17.00
2023-02-16T16:45:41.527Z,17.00
2023-02-16T16:48:14.269Z,17.50
2023-02-16T16:50:41.292Z,17.00
2023-02-16T16:53:31.362Z,17.00
2023-02-16T16:55:58.466Z,17.00
2023-02-16T16:58:25.876Z,17.00
2023-02-16T17:00:52.598Z,17.10
2023-02-16T17:03:19.514Z,17.10
2023-02-16T17:05:46.423Z,17.00
2023-02-16T17:08:13.073Z,17.00
2023-02-16T17:10:40.132Z,17.00
2023-02-16T17:13:06.895Z,17.10
2023-02-16T17:15:33.655Z,17.00
2023-02-16T17:18:00.463Z,17.00
2023-02-16T17:20:27.188Z,17.00
2023-02-16T17:22:53.919Z,17.10
2023-02-16T17:25:20.753Z,17.00
2023-02-16T17:27:47.444Z,17.00
2023-02-16T17:30:14.471Z,17.00
2023-02-16T17:32:41.218Z,17.00
2023-02-16T17:35:08.074Z,17.00
2023-02-16T17:37:35.673Z,17.00
2023-02-16T17:40:03.233Z,17.10
2023-02-16T17:42:30.035Z,17.00
2023-02-16T17:44:56.824Z,17.00
2023-02-16T17:47:23.605Z,17.00
2023-02-16T17:49:50.283Z,17.10
2023-02-16T17:52:17.210Z,17.00
2023-02-16T17:54:44.073Z,17.00
2023-02-16T17:57:10.827Z,17.00
2023-02-16T17:59:37.804Z,17.10
2023-02-16T18:02:04.532Z,17.00
2023-02-16T18:04:31.671Z,17.10
2023-02-16T18:06:58.552Z,17.10
2023-02-16T18:09:28.259Z,17.20
2023-02-16T18:11:54.992Z,17.10
2023-02-16T18:14:21.774Z,17.20
2023-02-16T18:16:51.453Z,17.10
2023-02-16T18:19:19.482Z,17.10
2023-02-16T18:21:46.607Z,17.10
2023-02-16T18:24:13.624Z,17.10
2023-02-16T18:26:40.612Z,17.10
2023-02-16T18:29:07.630Z,17.30
2023-02-16T18:31:41.218Z,17.10
2023-02-16T18:34:09.465Z,17.10
2023-02-16T18:36:36.584Z,17.10
2023-02-16T18:39:04.037Z,17.10
2023-02-16T18:41:30.978Z,17.10
2023-02-16T18:43:57.680Z,17.10
2023-02-16T18:46:24.561Z,17.10
2023-02-16T18:48:54.374Z,17.10
2023-02-16T18:51:23.750Z,17.10
2023-02-16T18:53:50.538Z,17.10
2023-02-16T18:56:17.338Z,17.10
2023-02-16T18:58:44.127Z,17.10
2023-02-16T19:01:11.919Z,17.10
2023-02-16T19:03:41.867Z,17.10
2023-02-16T19:06:08.823Z,17.10
2023-02-16T19:08:35.572Z,17.10
2023-02-16T19:11:02.402Z,17.10
2023-02-16T19:13:29.211Z,17.10
2023-02-16T19:15:55.988Z,17.20
2023-02-16T19:18:22.813Z,17.10
2023-02-16T19:20:49.812Z,17.10
2023-02-16T19:23:16.576Z,17.10
2023-02-16T19:25:46.651Z,17.10
2023-02-16T19:28:13.666Z,17.10
2023-02-16T19:30:49.321Z,17.10
2023-02-16T19:33:24.495Z,17.10
2023-02-16T19:35:51.596Z,17.10
2023-02-16T19:38:21.416Z,17.10
2023-02-16T19:40:50.617Z,17.10
2023-02-16T19:43:20.222Z,17.00
2023-02-16T19:45:50.372Z,17.10
2023-02-16T19:48:20.461Z,17.10
2023-02-16T19:50:50.779Z,17.10
2023-02-16T19:53:23.679Z,17.10
2023-02-16T19:55:55.864Z,17.10
2023-02-16T19:58:28.518Z,17.10
2023-02-16T20:00:55.553Z,17.10
2023-02-16T20:03:23.733Z,17.10
2023-02-16T20:05:51.232Z,17.10
2023-02-16T20:08:18.390Z,17.10
2023-02-16T20:10:51.126Z,17.10
2023-02-16T20:13:21.145Z,17.10
2023-02-16T20:15:56.213Z,17.10
2023-02-16T20:18:28.345Z,17.10
2023-02-16T20:20:59.565Z,17.10
2023-02-16T20:23:30.293Z,17.10
2023-02-16T20:26:02.467Z,17.10
2023-02-16T20:28:32.307Z,17.10
2023-02-16T20:31:00.643Z,17.10
2023-02-16T20:33:27.700Z,17.10
2023-02-16T20:35:55.774Z,17.10
2023-02-16T20:38:34.636Z,17.10
2023-02-16T20:41:01.896Z,17.00
2023-02-16T20:43:31.050Z,17.10
2023-02-16T20:45:58.130Z,17.00
2023-02-16T20:48:27.955Z,17.10
2023-02-16T20:50:55.474Z,17.00
2023-02-16T20:53:22.678Z,17.10
2023-02-16T20:55:52.329Z,17.00
2023-02-16T20:58:21.315Z,17.10
2023-02-16T21:00:48.419Z,17.10
2023-02-16T21:03:19.340Z,17.10
2023-02-16T21:05:46.333Z,17.10
2023-02-16T21:08:20.768Z,17.10
2023-02-16T21:10:51.032Z,17.10
2023-02-16T21:13:21.321Z,17.10
2023-02-16T21:15:47.994Z,17.10
2023-02-16T21:18:14.594Z,17.10
2023-02-16T21:20:41.185Z,17.60
2023-02-16T21:23:07.774Z,17.10
2023-02-16T21:25:34.457Z,17.10
2023-02-16T21:28:01.160Z,17.10
2023-02-16T21:30:27.920Z,17.10
2023-02-16T21:32:54.558Z,17.10
2023-02-16T21:35:21.153Z,17.20
2023-02-16T21:37:47.761Z,17.10
2023-02-16T21:40:33.189Z,17.10
2023-02-16T21:42:59.897Z,17.10
2023-02-16T21:45:26.636Z,17.10
2023-02-16T21:48:11.720Z,17.10
2023-02-16T21:50:39.113Z,17.10
2023-02-16T21:53:05.821Z,17.10
2023-02-16T21:55:51.125Z,17.10
2023-02-16T21:58:17.875Z,17.10
2023-02-16T22:00:44.652Z,17.10
2023-02-16T22:03:11.503Z,17.10
2023-02-16T22:05:43.377Z,17.10
2023-02-16T22:08:09.996Z,17.00
2023-02-16T22:10:36.697Z,17.00
2023-02-16T22:13:03.348Z,17.00
2023-02-16T22:15:30.095Z,17.10
2023-02-16T22:17:57.791Z,17.10
2023-02-16T22:20:24.377Z,17.10
2023-02-16T22:22:52.283Z,17.10
2023-02-16T22:25:18.920Z,17.10
2023-02-16T22:27:45.568Z,17.10
2023-02-16T22:30:12.306Z,17.10
2023-02-16T22:32:38.992Z,17.10
2023-02-16T22:35:05.898Z,17.10
2023-02-16T22:37:33.040Z,17.10
2023-02-16T22:39:59.708Z,17.10
2023-02-16T22:42:26.368Z,17.10
2023-02-16T22:44:52.999Z,17.00
2023-02-16T22:47:19.721Z,17.00
2023-02-16T22:49:46.434Z,17.10
2023-02-16T22:52:13.023Z,17.00
2023-02-16T22:54:39.678Z,17.10
2023-02-16T22:57:07.264Z,17.00
2023-02-16T22:59:34.021Z,17.00
2023-02-16T23:02:00.661Z,17.00
2023-02-16T23:04:27.343Z,17.00
2023-02-16T23:06:53.961Z,17.00
2023-02-16T23:09:20.805Z,17.00
2023-02-16T23:11:47.631Z,17.00
2023-02-16T23:14:17.036Z,17.00
2023-02-16T23:16:44.347Z,17.00
2023-02-16T23:19:14.884Z,17.00
2023-02-16T23:21:41.519Z,16.90
2023-02-16T23:24:08.667Z,17.00
2023-02-16T23:26:35.372Z,17.00
2023-02-16T23:29:02.111Z,17.00
2023-02-16T23:31:35.535Z,17.00
2023-02-16T23:34:02.870Z,17.00
2023-02-16T23:36:29.748Z,17.00
2023-02-16T23:38:58.844Z,17.00
2023-02-16T23:41:25.422Z,17.00
2023-02-16T23:43:52.085Z,17.00
2023-02-16T23:46:18.778Z,17.00
2023-02-16T23:48:45.503Z,16.90
2023-02-16T23:51:12.348Z,17.00
2023-02-16T23:53:39.053Z,17.00
2023-02-16T23:56:07.863Z,17.00
2023-02-16T23:58:41.374Z,17.00
